Pulaski, Georgia
Current Conditions -  °F | °C
As of 9:15 AM on Monday 20 Oct 2014 (Local Time) from KCWV Reporting Station
Scattered Clouds Scattered Clouds  
Wind Chill: 55°   Ceiling: Unl
Heat Index: 55°   Visibility: 10mi
Dew Point: 55°   Wind: 0mph
Humidity: 100%   Direction: NA
Pressure: 30.14"   Gusts: NA
Location:  32.39°N, 81.96°W
Report Text: KCWV 201315Z AUTO 00000KT 10SM SCT040 13/13 A3014 RMK AO2
Loading
Personal Weather Stations






























Interactive Weather Map
Tropical Storm Tracking
New forecast layout! Learn more

10-Day Weather Forecast

Advertisements
Track Severe Weather on mobile